x

South Hecate Strait (46185) Wave Buoy

10:00pm - Fri 31st Oct 2014 All times are PDT. -7 hours from GMT.

  • Sig Wave height 2.3ft
  • Peak Period 14s
  • Wind
    9mph
  • Sea Temp 55°f
  • Air Temp 50°f
  • Sea Pressure 1009.5mb
  • South Hecate Strait
  • South Hecate Strait

More Historic Weather Station data

Upgrade to MSW Pro to gain access to the past 30 days of data for over 8000 Wavebouys and Weather Stations around the globe.

Join Pro

Comparision Forecast

View Surf forecast
   
Fri 10/31 10:00pm 2.5ft 14s 9
mph
1009.5mb 55f 50f
9:00pm 2.5ft 8s 7 9 mph 1009.2mb 55f 51f
8:00pm 3ft 8s 4 7 mph 1009mb 55f 51f
7:00pm 3ft 8s 4 7 mph 1008.7mb 55f 50f
6:00pm 3.5ft 7s 4 7 mph 1008.5mb 55f 50f
5:00pm 3.5ft 7s 7 9 mph 1008.5mb 55f 51f
3:00pm 4ft 8s 9 11 mph 1007.9mb 55f 51f
2:00pm 4.5ft 8s 9 13 mph 1007.7mb 55f 51f
1:00pm 4ft 8s 9 11 mph 1007.5mb 55f 52f
12:00pm 4.5ft 8s 9 11 mph 1007.4mb 55f 51f
11:00am 4.5ft 8s 9 13 mph 1007.1mb 55f 50f
10:00am 5ft 9s 9 13 mph 1006.9mb 55f 49f
9:00am 5ft 10s 13 18 mph 1006.2mb 55f 50f
8:00am 5ft 9s 13 18 mph 1005.8mb 55f 50f
7:00am 5ft 9s 13 16 mph 1005.2mb 55f 50f
6:00am 5ft 9s 13 18 mph 1004.6mb 55f 49f
5:00am 5.5ft 9s 11 13 mph 1004.2mb 55f 50f
4:00am 6ft 8s 11 13 mph 1004mb 55f 51f
3:00am 6.5ft 8s 9 13 mph 1003.7mb 55f 51f
2:00am 7ft 8s 13 18 mph 1002.8mb 55f 51f
1:00am 7ft 8s 25 29 mph 1001.9mb 55f 52f
12:00am 7ft 8s 20 25 mph 1002mb 55f 52f
Thu 10/30 11:00pm 6.5ft 8s 22 27 mph 1001.7mb 55f 53f
10:00pm 7ft 9s 13 20 mph 1001.7mb 55f 51f
9:00pm 7ft 9s 20 27 mph 1001.3mb 54f 53f
8:00pm 8ft 10s 18 22 mph 1000.9mb 54f 53f
7:00pm 7.5ft 10s 22 29 mph 1000.4mb 54f 53f
6:00pm 8ft 10s 25 31 mph 999.8mb 55f 54f
5:00pm 8ft 10s 25 31 mph 999.9mb 55f 55f
4:00pm 8.5ft 10s 22 29 mph 1000mb 55f 55f
3:00pm 8.5ft 9s 18 22 mph 1000.2mb 55f 54f
2:00pm 8ft 9s 22 27 mph 999.5mb 55f 55f
1:00pm 9ft 11s 20 27 mph 999mb 55f 55f
12:00pm 10.5ft 10s 22 27 mph 998.5mb 55f 55f
11:00am 11ft 10s 20 27 mph 997.9mb 55f 54f
10:00am 12.5ft 10s 11 16 mph 996.7mb 55f 53f
9:00am 13.5ft 8s 31 38 mph 996.5mb 55f 54f
8:00am 12ft 8s 31 38 mph 996.1mb 55f 55f
7:00am 13ft 9s 31 43 mph 997.1mb 55f 56f
6:00am 14.5ft 9s 34 45 mph 998.1mb 55f 56f
5:00am 14ft 8s 36 45 mph 999.5mb 55f 56f
4:00am 12ft 8s 43 54 mph 1000.8mb 55f 56f
3:00am 11ft 8s 38 49 mph 1002.1mb 54f 56f
2:00am  -   -  34
mph
- - -
1:00am 9ft 8s 34 45 mph 1005mb 54f 56f
12:00am 9ft 8s 34 40 mph 1006.4mb 54f 55f
Wed 10/29 11:00pm 8ft 7s 29 38 mph 1007.4mb 54f 55f
10:00pm 9ft 7s 29 38 mph 1007.9mb 54f 55f
9:00pm 8ft 6s 29 36 mph 1008.7mb 54f 55f
8:00pm 7.5ft 6s 29 36 mph 1009.5mb 54f 55f
7:00pm 7ft 10s 29 36 mph 1009.9mb 54f 54f
6:00pm 7ft 10s 27 31 mph 1010.6mb 54f 54f
5:00pm 7ft 11s 25 29 mph 1011.4mb 54f 53f
4:00pm 6.5ft 10s 27 29 mph 1011.8mb 54f 54f
3:00pm 6ft 10s 20 27 mph 1012.5mb 54f 53f
2:00pm 6ft 11s 20 25 mph 1012.8mb 54f 54f
1:00pm 6ft 12s 20 25 mph 1013.2mb 54f 54f
12:00pm 6ft 12s 18 22 mph 1013.5mb 54f 53f
11:00am 6ft 11s 16 18 mph 1013mb 54f 54f
10:00am 6ft 12s 11 13 mph 1012.7mb 54f 53f
9:00am 6ft 13s 11 13 mph 1012.2mb 54f 53f
8:00am 6.5ft 12s 9 11 mph 1011.4mb 54f 53f
7:00am 7ft 12s 9 11 mph 1010.9mb 54f 53f
6:00am 7.5ft 13s 13 16 mph 1010.1mb 54f 53f
5:00am 7.5ft 12s 13 16 mph 1009.3mb 54f 53f
4:00am 8ft 12s 13 16 mph 1008.5mb 54f 53f
3:00am 8ft 12s 13 16 mph 1007.8mb 54f 53f
2:00am 8ft 10s 18 20 mph 1006.9mb 54f 53f
1:00am 8.5ft 11s 18 22 mph 1005.7mb 54f 53f
12:00am 8.5ft 12s 16 18 mph 1004.9mb 54f 53f
Tue 10/28 11:00pm 8ft 12s 11 16 mph 1003.8mb 54f 54f
10:00pm 8.5ft 13s 11 13 mph 1002.8mb 54f 54f
9:00pm 7.5ft 12s 13 16 mph 1001.5mb 54f 54f
8:00pm 8ft 13s 13 16 mph 1000.4mb 54f 54f
7:00pm 8ft 12s 13 16 mph 999.3mb 54f 52f
6:00pm 9ft 13s 13 18 mph 998.1mb 54f 53f
5:00pm 9ft 8s 13 18 mph 997mb 54f 54f
4:00pm 10.5ft 8s 9 11 mph 996.1mb 54f 55f
3:00pm 11ft 10s 11 13 mph 995.5mb 54f 55f
2:00pm  -   -  13
mph
- - 55f
1:00pm 11.5ft 12s 16 20 mph 994.3mb 54f 55f
12:00pm 13.5ft 10s 18 20 mph 993.6mb 53f 55f
11:00am 13.5ft 11s 13 18 mph 992.7mb 53f 55f
10:00am 16ft 10s 25 31 mph 991.7mb 53f 54f
9:00am 15.5ft 12s 34 40 mph 991.2mb 53f 53f
8:00am 17ft 11s 38 49 mph 990.6mb 53f 53f
7:00am 17.5ft 11s 34 45 mph 990.8mb 53f 52f